Time;durP1;ratioP1;P1;durP2;ratioP2;P2;SDS_P1;SDS_P2;PMS_P1;PMS_P2;Temp;Humidity;BMP_temperature;BMP_pressure;BME280_temperature;BME280_humidity;BME280_pressure;Samples;Min_cycle;Max_cycle;Signal;HPM_P1;HPM_P2
2023/10/15 00:04:17;;;;;;;4.43;2.13;;;;;;;12.08;46.31;100072.25;10451724;28;20273;-66
2023/10/15 00:09:20;;;;;;;5.37;2.17;;;;;;;12.65;45.74;99965.97;10454919;28;20626;-66
2023/10/15 00:14:22;;;;;;;4.13;2.20;;;;;;;11.98;46.44;99951.88;10441668;28;20227;-65
2023/10/15 00:19:24;;;;;;;3.13;2.03;;;;;;;11.63;46.56;99954.38;10449809;28;20816;-67
2023/10/15 00:24:26;;;;;;;4.50;1.90;;;;;;;11.45;46.67;100072.63;10461714;28;20232;-66
2023/10/15 00:29:27;;;;;;;3.13;2.20;;;;;;;12.18;46.57;99923.41;10461675;28;20506;-67
2023/10/15 00:34:30;;;;;;;2.87;1.93;;;;;;;9.72;50.08;100139.66;10439948;28;20243;-64
2023/10/15 00:39:37;;;;;;;3.17;2.20;;;;;;;11.58;47.78;99895.09;10457600;28;20246;-65
2023/10/15 00:44:38;;;;;;;6.47;2.93;;;;;;;11.84;47.04;99893.75;10460127;28;20258;-65
2023/10/15 00:49:41;;;;;;;3.43;2.30;;;;;;;11.86;46.84;99951.56;10461036;28;20330;-66
2023/10/15 00:54:43;;;;;;;5.70;2.23;;;;;;;11.71;47.31;99946.22;10460554;28;20239;-65
2023/10/15 00:59:48;;;;;;;4.33;2.30;;;;;;;12.16;46.07;99911.19;10460087;28;20227;-64
2023/10/15 01:04:51;;;;;;;3.70;2.40;;;;;;;12.02;46.75;99965.75;10457582;28;20231;-65
2023/10/15 01:09:53;;;;;;;4.63;2.73;;;;;;;12.30;45.91;99963.97;10460481;28;20276;-64
2023/10/15 01:14:54;;;;;;;4.63;2.33;;;;;;;12.84;45.43;99897.31;10459471;28;20741;-64
2023/10/15 01:19:56;;;;;;;4.73;2.20;;;;;;;12.24;45.77;100023.75;10459601;28;20718;-66
2023/10/15 01:25:09;;;;;;;4.27;2.23;;;;;;;11.99;46.82;99964.25;10459041;28;20231;-64
2023/10/15 01:30:17;;;;;;;5.23;2.60;;;;;;;12.28;46.38;100005.41;10459488;28;20243;-64
2023/10/15 01:35:19;;;;;;;4.23;2.23;;;;;;;12.92;45.54;99898.00;10442292;28;20238;-67
2023/10/15 01:40:37;;;;;;;3.30;2.17;;;;;;;12.80;45.40;99936.34;10452452;28;20372;-66
2023/10/15 01:45:44;;;;;;;6.70;2.63;;;;;;;12.40;46.30;99985.13;10440448;28;20231;-66
2023/10/15 01:50:51;;;;;;;3.50;1.97;;;;;;;11.70;47.05;100026.81;10455032;28;20232;-67
2023/10/15 01:55:59;;;;;;;3.20;1.77;;;;;;;12.51;46.34;99965.03;10457809;28;20263;-66
2023/10/15 02:01:20;;;;;;;4.33;2.03;;;;;;;11.29;48.65;100014.69;10459790;28;20238;-67
2023/10/15 02:06:22;;;;;;;3.37;2.30;;;;;;;11.74;48.67;99908.31;10444717;28;20866;-65
2023/10/15 02:11:24;;;;;;;5.33;2.07;;;;;;;11.71;47.58;100049.91;10444358;28;20230;-67
2023/10/15 02:16:29;;;;;;;6.73;2.10;;;;;;;11.09;48.75;100062.59;10460240;28;20250;-66
2023/10/15 02:21:33;;;;;;;3.77;2.00;;;;;;;11.73;48.78;99900.47;10457327;28;20228;-66
2023/10/15 02:26:35;;;;;;;3.63;2.10;;;;;;;11.52;48.73;99922.63;10456817;28;20579;-67
2023/10/15 02:31:42;;;;;;;4.87;1.90;;;;;;;12.89;46.76;99879.59;10456406;28;20235;-67
2023/10/15 02:36:44;;;;;;;5.03;1.90;;;;;;;12.43;47.49;99838.97;10456468;28;20235;-67
2023/10/15 02:41:46;;;;;;;3.97;2.57;;;;;;;12.61;47.79;99843.91;10453960;28;20241;-66
2023/10/15 02:46:48;;;;;;;3.33;2.50;;;;;;;12.57;47.77;99838.09;10456697;28;20325;-67
2023/10/15 02:51:50;;;;;;;5.07;2.30;;;;;;;9.96;51.61;100021.19;10460099;28;20261;-66
2023/10/15 02:56:56;;;;;;;4.47;2.37;;;;;;;9.28;52.81;100076.81;10439610;28;21106;-64
2023/10/15 03:02:06;;;;;;;5.20;2.20;;;;;;;9.48;53.30;99970.38;10456231;28;20250;-66
2023/10/15 03:12:20;;;;;;;5.77;2.37;;;;;;;9.69;52.25;100001.88;10455867;28;20235;-66
2023/10/15 03:17:25;;;;;;;4.83;2.17;;;;;;;11.70;49.88;99818.56;10455747;28;20227;-66
2023/10/15 03:22:30;;;;;;;4.37;2.23;;;;;;;10.95;50.30;99918.78;10455722;28;20625;-66
2023/10/15 03:27:32;;;;;;;4.23;2.00;;;;;;;9.88;52.24;99975.78;10455828;28;20236;-66
2023/10/15 03:32:40;;;;;;;7.53;2.37;;;;;;;11.55;50.31;99815.06;10440963;28;20342;-66
2023/10/15 03:37:46;;;;;;;6.43;2.80;;;;;;;9.96;52.80;99944.47;10455341;28;20223;-66
2023/10/15 03:42:48;;;;;;;5.23;2.50;;;;;;;9.71;53.21;99953.63;10457574;28;20239;-65
2023/10/15 03:47:54;;;;;;;4.00;2.37;;;;;;;12.01;49.40;99830.81;10456285;28;20234;-65
2023/10/15 03:52:58;;;;;;;4.60;2.27;;;;;;;13.13;46.92;99863.19;10462136;28;20234;-65
2023/10/15 03:58:01;;;;;;;4.87;2.50;;;;;;;12.72;47.11;99974.88;10465189;28;20224;-65
2023/10/15 04:03:18;;;;;;;5.07;1.90;;;;;;;12.16;47.94;100024.72;10459492;28;20836;-66
2023/10/15 04:08:24;;;;;;;3.97;2.10;;;;;;;11.76;48.61;100029.59;10443999;28;20360;-66
2023/10/15 04:13:27;;;;;;;5.73;2.30;;;;;;;10.98;49.86;100063.00;10462007;28;20234;-66
2023/10/15 04:18:29;;;;;;;4.50;2.20;;;;;;;13.05;47.37;99909.84;10448696;28;20849;-65
2023/10/15 04:23:31;;;;;;;3.17;2.07;;;;;;;12.42;47.71;99945.50;10462977;28;20227;-66
2023/10/15 04:28:36;;;;;;;3.30;1.97;;;;;;;11.78;48.39;100081.16;10463647;28;20271;-68
2023/10/15 04:33:43;;;;;;;4.20;2.67;;;;;;;12.74;47.17;99971.00;10462030;28;20315;-65
2023/10/15 04:38:45;;;;;;;4.47;2.17;;;;;;;12.27;47.69;100015.34;10465365;28;20310;-67
2023/10/15 04:43:47;;;;;;;6.97;2.40;;;;;;;12.16;48.15;100010.47;10444642;28;20318;-66
2023/10/15 04:48:50;;;;;;;5.90;2.57;;;;;;;11.42;49.25;100102.44;10459905;28;22148;-65
2023/10/15 04:53:52;;;;;;;4.00;1.97;;;;;;;11.75;48.96;100027.91;10469892;28;20249;-66
2023/10/15 04:58:57;;;;;;;3.53;2.20;;;;;;;12.24;47.37;100071.22;10466535;28;20329;-65
2023/10/15 05:04:00;;;;;;;5.83;2.20;;;;;;;12.51;47.61;99976.59;10463771;28;20886;-66
2023/10/15 05:09:08;;;;;;;4.20;2.60;;;;;;;12.83;47.01;99944.00;10463714;28;20227;-65
2023/10/15 05:14:11;;;;;;;5.37;2.60;;;;;;;11.72;48.75;100081.91;10445768;28;20243;-66
2023/10/15 05:19:16;;;;;;;7.27;2.50;;;;;;;12.14;48.11;100052.75;10467463;28;20228;-65
2023/10/15 05:24:20;;;;;;;5.07;2.40;;;;;;;12.41;47.62;100015.47;10449530;28;20233;-66
2023/10/15 05:29:23;;;;;;;3.50;2.30;;;;;;;11.52;48.90;100043.22;10449383;28;20672;-66
2023/10/15 05:34:25;;;;;;;3.13;2.10;;;;;;;11.55;48.95;100070.50;10465464;28;20231;-66
2023/10/15 05:39:27;;;;;;;4.03;2.43;;;;;;;12.57;47.03;99990.25;10448455;28;20234;-66
2023/10/15 05:44:28;;;;;;;3.60;2.53;;;;;;;12.58;46.54;100075.13;10458592;28;20235;-65
2023/10/15 05:49:30;;;;;;;4.33;3.10;;;;;;;11.75;48.32;100124.44;10457845;28;20664;-66
2023/10/15 05:54:32;;;;;;;4.20;2.60;;;;;;;11.62;48.76;100086.69;10459642;28;20231;-66
2023/10/15 05:59:35;;;;;;;5.23;2.73;;;;;;;10.22;51.36;100156.44;10466535;28;20285;-66
2023/10/15 06:04:38;;;;;;;5.27;2.30;;;;;;;9.95;52.11;100155.84;10457604;28;20227;-66
2023/10/15 06:09:41;;;;;;;5.17;2.83;;;;;;;11.59;49.57;100030.75;10464076;28;20600;-65
2023/10/15 06:14:42;;;;;;;3.67;2.40;;;;;;;12.28;48.34;99978.59;10463220;28;20235;-67
2023/10/15 06:19:44;;;;;;;4.50;2.53;;;;;;;11.56;49.33;100047.22;10460128;28;20231;-66
2023/10/15 06:24:46;;;;;;;4.53;2.83;;;;;;;11.59;49.36;99995.91;10455490;28;20632;-65
2023/10/15 06:29:48;;;;;;;4.83;2.33;;;;;;;10.14;51.26;100141.22;10461597;28;20322;-65
2023/10/15 06:34:50;;;;;;;6.73;2.50;;;;;;;10.92;50.68;100028.91;10436172;28;20364;-64
2023/10/15 06:39:51;;;;;;;3.50;2.50;;;;;;;10.10;52.08;100065.06;10458078;28;20675;-65
2023/10/15 06:44:56;;;;;;;4.67;2.87;;;;;;;10.23;51.65;100097.41;10462711;28;20389;-65
2023/10/15 06:49:58;;;;;;;3.73;2.77;;;;;;;9.20;53.27;100162.25;10453306;28;20787;-65
2023/10/15 06:54:59;;;;;;;5.57;2.40;;;;;;;10.80;50.96;100015.13;10462163;28;20223;-66
2023/10/15 07:00:01;;;;;;;6.37;2.70;;;;;;;10.51;51.88;100014.84;10460294;28;20693;-66
2023/10/15 07:05:04;;;;;;;5.13;2.47;;;;;;;9.73;51.90;100192.94;10455398;28;20235;-66
2023/10/15 07:10:07;;;;;;;3.87;2.80;;;;;;;11.31;49.67;100100.22;10453734;28;20292;-66
2023/10/15 07:15:09;;;;;;;2.87;2.43;;;;;;;12.00;48.43;100019.56;10458198;28;20227;-65
2023/10/15 07:20:15;;;;;;;4.07;2.90;;;;;;;12.24;47.22;100157.09;10466957;28;20314;-65
2023/10/15 07:25:21;;;;;;;7.03;3.00;;;;;;;12.63;46.57;100194.34;10467058;28;20239;-67
2023/10/15 07:30:23;;;;;;;3.43;2.27;;;;;;;11.75;48.60;100158.47;10468331;28;20227;-66
2023/10/15 07:35:27;;;;;;;4.23;2.60;;;;;;;11.83;48.74;100168.25;10444450;28;20274;-66
2023/10/15 07:40:32;;;;;;;6.20;2.77;;;;;;;11.09;50.74;100129.53;10448799;28;20736;-66
2023/10/15 07:45:37;;;;;;;4.73;2.87;;;;;;;10.60;50.85;100224.34;10466643;28;20222;-66
2023/10/15 07:50:39;;;;;;;5.00;2.70;;;;;;;11.41;49.93;100069.47;10428161;28;20325;-65
2023/10/15 07:55:41;;;;;;;5.10;2.77;;;;;;;10.84;50.76;100172.53;10465273;28;20230;-65
2023/10/15 08:00:42;;;;;;;4.73;2.47;;;;;;;10.61;51.04;100180.50;10448798;28;20235;-64
2023/10/15 08:06:02;;;;;;;6.03;2.30;;;;;;;11.37;48.63;100182.53;10449069;28;20280;-65
2023/10/15 08:11:05;;;;;;;5.53;2.60;;;;;;;11.20;49.70;100105.00;10466236;28;20235;-70
2023/10/15 08:16:07;;;;;;;6.03;2.60;;;;;;;10.63;49.51;100215.97;10447775;28;20227;-65
2023/10/15 08:21:11;;;;;;;5.13;2.60;;;;;;;11.92;47.95;100143.84;10470077;28;20231;-65
2023/10/15 08:26:17;;;;;;;4.60;2.47;;;;;;;11.26;48.90;100152.50;10464244;28;20236;-68
2023/10/15 08:31:18;;;;;;;5.67;2.63;;;;;;;11.59;48.17;100160.25;10463856;28;20258;-68
2023/10/15 08:36:21;;;;;;;5.20;2.40;;;;;;;12.44;45.79;100096.44;10461926;28;20229;-67
2023/10/15 08:41:27;;;;;;;7.77;2.27;;;;;;;12.21;46.08;100219.16;10459485;28;20255;-68
2023/10/15 08:46:30;;;;;;;4.83;2.13;;;;;;;12.46;45.79;100185.66;10459849;28;20979;-68
2023/10/15 08:51:34;;;;;;;3.57;2.10;;;;;;;11.49;45.28;100343.75;10466358;28;20227;-67
2023/10/15 08:56:37;;;;;;;3.10;2.50;;;;;;;12.84;43.94;100106.78;10464162;28;20793;-68
2023/10/15 09:01:42;;;;;;;3.83;1.93;;;;;;;12.91;43.12;100130.00;10464787;28;20250;-67
2023/10/15 09:06:47;;;;;;;6.93;2.43;;;;;;;11.91;43.24;100310.31;10446489;28;20289;-67
2023/10/15 09:11:50;;;;;;;4.20;2.10;;;;;;;12.35;43.00;100152.06;10465284;28;20317;-67
2023/10/15 09:16:53;;;;;;;4.57;2.20;;;;;;;10.72;43.92;100443.44;10449989;28;21612;-67
2023/10/15 09:21:55;;;;;;;4.77;3.10;;;;;;;10.30;44.33;100446.13;10467270;28;20234;-67
2023/10/15 09:26:57;;;;;;;5.17;2.10;;;;;;;12.85;41.76;100170.22;10463136;28;20228;-67
2023/10/15 09:32:02;;;;;;;5.03;2.40;;;;;;;9.90;44.63;100364.84;10464558;28;20230;-67
2023/10/15 09:37:07;;;;;;;3.30;2.53;;;;;;;12.76;41.28;100325.28;10448873;28;20243;-68
2023/10/15 09:42:09;;;;;;;4.93;2.23;;;;;;;12.36;41.13;100244.97;10448772;28;20318;-67
2023/10/15 09:47:11;;;;;;;1.83;1.73;;;;;;;12.23;41.74;100295.75;10460614;28;20231;-67
2023/10/15 09:52:14;;;;;;;4.60;1.80;;;;;;;10.56;43.26;100364.81;10455341;28;20223;-69
2023/10/15 09:57:18;;;;;;;3.37;2.33;;;;;;;11.80;41.87;100390.16;10464044;28;20234;-67
2023/10/15 10:02:32;;;;;;;4.90;2.00;;;;;;;11.24;42.73;100327.81;10461256;28;20239;-67
2023/10/15 10:07:57;;;;;;;2.43;1.90;;;;;;;11.59;42.05;100320.22;10449018;28;20643;-68
2023/10/15 10:13:30;;;;;;;3.00;1.70;;;;;;;11.87;41.03;100352.75;10459064;28;20231;-68
2023/10/15 10:18:36;;;;;;;2.37;2.00;;;;;;;10.93;41.78;100366.09;10435264;28;20344;-67
2023/10/15 10:23:39;;;;;;;6.40;2.53;;;;;;;11.04;41.52;100332.78;10461620;28;20364;-64
2023/10/15 10:28:47;;;;;;;6.70;2.40;;;;;;;11.81;41.08;100222.91;10458704;28;20246;-67
2023/10/15 10:33:50;;;;;;;2.70;2.07;;;;;;;11.19;41.49;100365.03;10459109;28;20673;-64
2023/10/15 10:39:10;;;;;;;2.30;1.70;;;;;;;12.19;40.69;100306.03;10447868;28;20318;-67
2023/10/15 10:44:33;;;;;;;2.80;1.90;;;;;;;14.08;38.53;100141.28;10442085;28;21921;-67
2023/10/15 10:49:40;;;;;;;2.13;1.87;;;;;;;12.08;39.85;100266.25;10445390;28;20346;-66
2023/10/15 10:54:43;;;;;;;6.00;2.20;;;;;;;13.11;38.10;100344.31;10458964;28;20231;-66
2023/10/15 10:59:45;;;;;;;2.57;1.80;;;;;;;12.36;39.36;100322.78;10453369;28;20306;-70
2023/10/15 11:06:13;;;;;;;2.57;2.07;;;;;;;11.86;41.26;100219.69;10464226;27;20769;-68
2023/10/15 11:11:15;;;;;;;3.57;2.03;;;;;;;12.12;40.61;100317.69;10408322;28;20243;-65
2023/10/15 11:16:17;;;;;;;2.73;1.93;;;;;;;11.63;40.77;100308.19;10402102;28;20323;-64
2023/10/15 11:21:19;;;;;;;2.43;1.80;;;;;;;12.92;39.49;100274.03;10409428;28;21019;-70
2023/10/15 11:26:20;;;;;;;5.27;1.90;;;;;;;12.40;38.70;100250.81;10402552;28;20228;-71
2023/10/15 11:31:22;;;;;;;2.10;1.53;;;;;;;12.67;38.22;100205.53;10408113;28;20270;-70
2023/10/15 11:36:25;;;;;;;4.13;2.07;;;;;;;11.65;38.81;100327.59;10398642;28;20286;-64
2023/10/15 11:41:31;;;;;;;6.00;1.80;;;;;;;12.97;38.33;100132.94;10431860;28;20262;-70
2023/10/15 11:46:35;;;;;;;1.93;1.53;;;;;;;12.88;37.68;100245.06;10443355;28;20346;-65
2023/10/15 11:51:39;;;;;;;1.97;1.63;;;;;;;12.24;38.20;100324.25;10446179;28;20351;-64
2023/10/15 11:56:47;;;;;;;3.53;1.70;;;;;;;11.92;38.53;100286.00;10440181;28;20246;-71
2023/10/15 12:01:52;;;;;;;3.07;2.40;;;;;;;12.05;38.44;100303.34;10420317;28;20699;-71
2023/10/15 12:06:54;;;;;;;2.93;1.70;;;;;;;12.24;37.65;100294.75;10439981;28;20236;-67
2023/10/15 12:11:55;;;;;;;2.80;1.70;;;;;;;11.29;37.25;100480.00;10454265;28;20309;-66
2023/10/15 12:16:57;;;;;;;1.73;1.63;;;;;;;11.93;36.63;100391.41;10425773;28;20232;-66
2023/10/15 12:21:59;;;;;;;1.80;1.70;;;;;;;12.55;36.85;100294.63;10416268;28;20232;-66
2023/10/15 12:27:00;;;;;;;2.27;1.80;;;;;;;12.47;37.28;100361.81;10422262;28;20736;-69
2023/10/15 12:32:02;;;;;;;2.53;2.00;;;;;;;12.72;37.15;100279.16;10419357;28;20278;-65
2023/10/15 12:37:07;;;;;;;2.37;1.90;;;;;;;11.69;38.33;100361.06;10413403;28;20319;-65
2023/10/15 12:42:11;;;;;;;1.77;1.63;;;;;;;11.72;37.62;100419.69;10439314;28;20740;-65
2023/10/15 12:47:13;;;;;;;3.07;1.60;;;;;;;12.96;35.99;100313.94;10405793;28;20232;-64
2023/10/15 12:52:15;;;;;;;2.47;1.80;;;;;;;13.04;36.83;100219.81;10431402;28;20228;-65
2023/10/15 12:57:17;;;;;;;2.60;1.70;;;;;;;12.14;37.39;100339.78;10415944;28;20232;-67
2023/10/15 13:02:20;;;;;;;2.43;1.70;;;;;;;12.60;37.65;100272.56;10414204;28;20235;-66
2023/10/15 13:07:22;;;;;;;2.50;1.87;;;;;;;12.41;37.33;100437.66;10419771;28;20224;-67
2023/10/15 13:12:25;;;;;;;2.73;1.70;;;;;;;12.49;38.28;100254.28;10431192;28;20797;-67
2023/10/15 13:17:26;;;;;;;2.43;1.70;;;;;;;12.90;37.77;100230.41;10431890;28;20232;-67
2023/10/15 13:22:28;;;;;;;1.90;1.80;;;;;;;12.05;37.26;100473.16;10429419;28;20306;-66
2023/10/15 13:27:30;;;;;;;3.30;1.60;;;;;;;12.97;35.77;100324.50;10425106;28;20330;-70
2023/10/15 13:32:32;;;;;;;1.70;1.60;;;;;;;13.79;34.93;100171.94;10431268;28;20232;-70
2023/10/15 13:37:34;;;;;;;2.13;1.93;;;;;;;14.00;34.14;100298.31;10440018;28;20241;-66
2023/10/15 13:42:42;;;;;;;2.03;1.57;;;;;;;13.42;35.17;100309.16;10450735;28;20464;-69
2023/10/15 13:47:45;;;;;;;3.33;1.60;;;;;;;13.43;35.12;100361.03;10446292;28;20752;-72
2023/10/15 13:52:47;;;;;;;1.63;1.37;;;;;;;14.79;33.97;100234.38;10452110;28;20281;-70
2023/10/15 13:57:52;;;;;;;2.37;1.47;;;;;;;11.52;36.00;100421.13;10430818;28;20236;-66
2023/10/15 14:02:56;;;;;;;2.73;1.77;;;;;;;12.26;34.47;100332.13;10431565;28;20269;-65
2023/10/15 14:07:59;;;;;;;2.60;1.60;;;;;;;11.60;34.95;100458.63;10444556;28;20231;-66
2023/10/15 14:13:00;;;;;;;1.83;1.53;;;;;;;10.93;35.90;100441.06;10427859;28;20227;-65
2023/10/15 14:18:20;;;;;;;1.60;1.50;;;;;;;13.16;34.38;100202.19;10452154;28;20238;-70
2023/10/15 14:23:23;;;;;;;1.60;1.50;;;;;;;11.54;34.60;100467.34;10440385;28;20251;-71
2023/10/15 14:28:25;;;;;;;2.50;1.40;;;;;;;10.92;33.92;100490.31;10449934;28;20611;-67
2023/10/15 14:33:27;;;;;;;1.53;1.43;;;;;;;11.76;33.37;100318.28;10426638;28;20768;-66
2023/10/15 14:38:29;;;;;;;2.10;1.50;;;;;;;12.70;33.62;100332.22;10449808;28;20239;-72
2023/10/15 14:43:31;;;;;;;2.33;1.60;;;;;;;11.73;33.92;100442.81;10445981;28;20243;-72
2023/10/15 14:48:33;;;;;;;3.13;1.57;;;;;;;12.98;32.79;100302.00;10434772;28;20222;-67
2023/10/15 14:53:35;;;;;;;2.13;1.70;;;;;;;12.73;32.63;100377.47;10444891;28;20342;-66
2023/10/15 14:58:36;;;;;;;1.50;1.40;;;;;;;14.26;31.31;100344.50;10458604;28;20303;-65
2023/10/15 15:03:38;;;;;;;3.63;1.50;;;;;;;14.30;32.03;100287.38;10450101;28;20231;-67
2023/10/15 15:08:40;;;;;;;1.30;1.20;;;;;;;14.07;31.95;100273.34;10451344;28;20679;-68
2023/10/15 15:13:42;;;;;;;2.43;1.67;;;;;;;12.51;32.60;100424.84;10415655;28;20255;-70
2023/10/15 15:18:43;;;;;;;1.50;1.40;;;;;;;12.53;32.12;100296.63;10423826;28;20234;-68
2023/10/15 15:23:45;;;;;;;1.37;1.30;;;;;;;12.62;32.02;100398.56;10417130;28;20239;-68
2023/10/15 15:28:50;;;;;;;2.80;1.90;;;;;;;13.24;31.85;100384.78;10428614;28;20231;-67
2023/10/15 15:33:52;;;;;;;2.10;1.60;;;;;;;14.31;31.88;100239.78;10417294;28;20231;-65
2023/10/15 15:38:55;;;;;;;1.97;1.50;;;;;;;14.77;31.37;100301.13;10453451;28;20240;-65
2023/10/15 15:43:56;;;;;;;2.40;1.83;;;;;;;13.57;32.34;100356.66;10447527;28;20247;-63
2023/10/15 15:48:59;;;;;;;1.77;1.30;;;;;;;13.46;32.79;100356.16;10442349;28;20239;-66
2023/10/15 15:54:00;;;;;;;2.97;2.63;;;;;;;12.83;33.71;100354.91;10460240;28;20237;-64
2023/10/15 15:59:03;;;;;;;1.47;1.37;;;;;;;13.21;32.32;100428.16;10446069;28;20231;-66
2023/10/15 16:04:05;;;;;;;1.80;1.70;;;;;;;13.37;32.15;100415.56;10437656;28;20246;-65
2023/10/15 16:09:08;;;;;;;4.47;1.97;;;;;;;13.88;32.42;100377.88;10465745;28;20744;-66
2023/10/15 16:14:11;;;;;;;3.63;1.90;;;;;;;13.69;34.01;100300.53;10435156;28;20231;-64
2023/10/15 16:19:13;;;;;;;2.80;1.67;;;;;;;14.52;32.81;100242.34;10425814;28;20227;-65
2023/10/15 16:24:15;;;;;;;1.70;1.57;;;;;;;12.64;33.97;100469.88;10419093;28;20320;-65
2023/10/15 16:29:16;;;;;;;2.97;1.50;;;;;;;12.23;34.93;100321.75;10427259;28;20239;-65
2023/10/15 16:34:19;;;;;;;1.97;1.83;;;;;;;12.09;35.02;100318.03;10415225;28;20346;-65
2023/10/15 16:39:23;;;;;;;1.50;1.40;;;;;;;11.15;36.17;100427.97;10425722;28;20234;-63
2023/10/15 16:44:26;;;;;;;2.07;1.60;;;;;;;12.63;34.42;100228.44;10409874;28;20235;-65
2023/10/15 16:49:29;;;;;;;3.13;2.30;;;;;;;12.36;34.60;100312.06;10429072;28;20232;-66
2023/10/15 16:54:31;;;;;;;2.30;2.10;;;;;;;;;;10424543;28;20302;-67
2023/10/15 16:59:32;;;;;;;1.90;1.70;;;;;;;11.58;35.25;100423.13;10422549;28;21532;-65
2023/10/15 17:04:34;;;;;;;2.10;1.90;;;;;;;13.01;33.83;100312.38;10455157;28;20251;-66
2023/10/15 17:09:38;;;;;;;2.97;1.60;;;;;;;13.12;33.51;100348.66;10435940;28;20236;-66
2023/10/15 17:14:40;;;;;;;2.60;2.40;;;;;;;13.13;34.45;100412.13;10410478;28;20247;-68
2023/10/15 17:19:43;;;;;;;3.87;3.30;;;;;;;13.03;34.15;100436.59;10420223;28;20232;-69
2023/10/15 17:24:44;;;;;;;4.97;2.30;;;;;;;11.35;35.80;100472.09;10415595;28;20239;-65
2023/10/15 17:29:47;;;;;;;3.13;2.07;;;;;;;10.86;36.49;100414.16;10408869;28;20227;-65
2023/10/15 17:35:09;;;;;;;2.93;2.00;;;;;;;12.47;34.46;100334.13;10426070;28;20239;-65
2023/10/15 17:40:11;;;;;;;4.03;2.83;;;;;;;11.99;35.25;100398.75;10428614;28;20236;-64
2023/10/15 17:45:13;;;;;;;3.27;2.10;;;;;;;12.31;34.93;100367.31;10405869;28;20323;-64
2023/10/15 17:50:15;;;;;;;3.50;2.50;;;;;;;11.86;35.61;100409.22;10406120;28;20602;-64
2023/10/15 17:55:17;;;;;;;2.27;1.93;;;;;;;11.64;35.44;100422.41;10423602;28;20450;-65
2023/10/15 18:00:18;;;;;;;2.53;2.33;;;;;;;11.71;36.15;100382.34;10442144;28;20305;-66
2023/10/15 18:05:20;;;;;;;2.43;2.00;;;;;;;11.71;35.62;100344.81;10406628;28;20247;-66
2023/10/15 18:10:22;;;;;;;2.90;2.30;;;;;;;11.75;36.01;100340.78;10413453;28;20234;-69
2023/10/15 18:15:28;;;;;;;3.00;2.50;;;;;;;10.08;37.80;100425.38;10414393;28;20229;-69
2023/10/15 18:20:30;;;;;;;4.43;2.00;;;;;;;10.50;36.97;100363.69;10413895;28;20228;-67
2023/10/15 18:25:32;;;;;;;3.20;2.20;;;;;;;9.73;37.92;100389.88;10410720;28;20869;-65
2023/10/15 18:30:34;;;;;;;2.73;1.90;;;;;;;9.43;38.47;100410.81;10423584;28;20806;-67
2023/10/15 18:35:36;;;;;;;2.73;2.20;;;;;;;9.82;38.81;100286.47;10412284;28;20611;-65
2023/10/15 18:40:38;;;;;;;2.90;2.07;;;;;;;10.01;38.35;100290.69;10404282;28;20308;-67
2023/10/15 18:45:40;;;;;;;4.53;2.50;;;;;;;9.40;39.74;100208.16;10418238;28;20317;-69
2023/10/15 18:50:42;;;;;;;3.47;2.40;;;;;;;9.34;39.47;100369.06;10417710;28;20714;-66
2023/10/15 18:55:45;;;;;;;3.43;2.97;;;;;;;9.19;39.91;100324.28;10391574;28;20323;-67
2023/10/15 19:00:47;;;;;;;3.33;2.77;;;;;;;9.44;39.74;100305.66;10424099;28;20232;-66
2023/10/15 19:05:49;;;;;;;2.93;2.73;;;;;;;9.86;39.35;100227.22;10419779;28;20231;-64
2023/10/15 19:10:51;;;;;;;3.90;2.70;;;;;;;8.74;40.98;100362.78;10422638;28;20876;-65
2023/10/15 19:15:54;;;;;;;3.43;2.50;;;;;;;8.15;41.97;100279.03;10411446;28;20240;-71
2023/10/15 19:20:56;;;;;;;2.90;2.60;;;;;;;8.47;41.29;100215.25;10419153;28;20232;-66
2023/10/15 19:26:08;;;;;;;4.00;2.70;;;;;;;9.68;39.33;100235.34;10415291;28;20231;-65
2023/10/15 19:31:10;;;;;;;2.27;1.93;;;;;;;8.14;41.03;100371.53;10425858;28;20788;-69
2023/10/15 19:36:17;;;;;;;2.67;2.47;;;;;;;8.28;41.16;100311.47;10439753;28;20312;-71
2023/10/15 19:41:19;;;;;;;2.47;2.27;;;;;;;9.92;39.36;100205.16;10445468;28;20742;-67
2023/10/15 19:46:21;;;;;;;3.47;2.43;;;;;;;10.98;38.48;100109.34;10440689;28;20233;-71
2023/10/15 19:51:23;;;;;;;5.13;2.20;;;;;;;11.40;36.99;100311.63;10466089;28;20234;-70
2023/10/15 19:56:25;;;;;;;2.67;2.47;;;;;;;8.59;40.72;100479.03;10458122;28;20868;-71
2023/10/15 20:01:27;;;;;;;2.60;2.40;;;;;;;10.55;39.74;100146.41;10395651;28;20244;-70
2023/10/15 20:06:29;;;;;;;2.87;2.50;;;;;;;12.03;37.25;100227.56;10426752;28;20290;-70
2023/10/15 20:11:30;;;;;;;3.07;2.37;;;;;;;10.30;39.01;100332.94;10449943;28;20750;-71
2023/10/15 20:16:32;;;;;;;2.53;2.33;;;;;;;11.77;37.77;100196.63;10467099;28;20243;-67
2023/10/15 20:21:36;;;;;;;4.13;2.87;;;;;;;10.34;38.91;100414.53;10463874;28;20234;-66
2023/10/15 20:26:38;;;;;;;3.63;2.20;;;;;;;9.93;39.91;100374.41;10442115;28;20917;-66
2023/10/15 20:31:39;;;;;;;3.00;2.37;;;;;;;11.53;38.52;100254.78;10410138;28;20318;-66
2023/10/15 20:36:41;;;;;;;2.40;2.30;;;;;;;11.25;38.22;100391.94;10408898;28;20239;-67
2023/10/15 20:41:43;;;;;;;2.63;2.30;;;;;;;9.32;40.86;100400.44;10412817;28;20224;-67
2023/10/15 20:46:45;;;;;;;3.07;2.50;;;;;;;10.37;40.21;100204.69;10424502;28;20612;-67
2023/10/15 20:51:47;;;;;;;2.57;2.03;;;;;;;10.01;40.08;100403.81;10428063;28;20334;-65
2023/10/15 20:56:49;;;;;;;2.70;2.50;;;;;;;9.80;40.87;100273.28;10427014;28;20326;-67
2023/10/15 21:01:50;;;;;;;2.90;2.67;;;;;;;9.67;41.08;100276.47;10427669;28;20273;-66
2023/10/15 21:06:53;;;;;;;5.17;2.67;;;;;;;11.76;38.60;100232.50;10409696;28;20242;-66
2023/10/15 21:11:55;;;;;;;3.80;2.33;;;;;;;12.35;38.00;100226.38;10408212;28;20293;-67
2023/10/15 21:16:57;;;;;;;4.63;2.80;;;;;;;10.48;39.91;100459.34;10404225;28;20718;-66
2023/10/15 21:21:59;;;;;;;2.97;2.50;;;;;;;9.93;40.44;100481.34;10425419;28;20244;-66
2023/10/15 21:27:00;;;;;;;3.87;2.90;;;;;;;10.39;40.21;100364.00;10418897;28;20454;-67
2023/10/15 21:32:02;;;;;;;4.00;3.63;;;;;;;10.22;40.11;100389.13;10404640;28;20342;-66
2023/10/15 21:37:05;;;;;;;4.33;3.03;;;;;;;10.36;39.92;100383.09;10424833;28;20232;-66
2023/10/15 21:42:06;;;;;;;3.23;2.87;;;;;;;8.68;43.46;100320.72;10404120;28;20299;-67
2023/10/15 21:47:08;;;;;;;3.27;2.40;;;;;;;11.31;39.98;100258.31;10423381;28;20240;-66
2023/10/15 21:52:10;;;;;;;3.10;2.90;;;;;;;9.44;42.24;100436.56;10423094;28;20785;-66
2023/10/15 21:57:11;;;;;;;4.77;2.60;;;;;;;9.42;44.28;100160.75;10422830;28;20589;-68
2023/10/15 22:02:14;;;;;;;7.90;2.80;;;;;;;9.81;42.58;100397.91;10422928;28;20263;-67
2023/10/15 22:07:15;;;;;;;2.93;2.53;;;;;;;8.29;45.80;100395.81;10421856;28;21218;-65
2023/10/15 22:12:18;;;;;;;2.60;2.40;;;;;;;10.90;42.51;100128.19;10418737;28;20730;-67
2023/10/15 22:17:21;;;;;;;5.03;3.20;;;;;;;9.27;44.46;100243.34;10421093;28;20240;-66
2023/10/15 22:22:24;;;;;;;4.23;2.67;;;;;;;8.97;45.92;100130.84;10421273;28;20232;-66
2023/10/15 22:27:25;;;;;;;4.80;3.60;;;;;;;10.23;42.32;100294.50;10424580;28;20279;-67
2023/10/15 22:32:29;;;;;;;5.40;3.00;;;;;;;8.36;44.69;100359.53;10427250;28;20916;-67
2023/10/15 22:37:31;;;;;;;3.40;2.90;;;;;;;10.61;41.47;100217.97;10405050;28;20860;-66
2023/10/15 22:42:32;;;;;;;3.27;2.90;;;;;;;11.41;41.12;100117.69;10456107;28;20239;-66
2023/10/15 22:47:36;;;;;;;3.83;3.10;;;;;;;8.13;46.48;100350.34;10432692;28;20235;-67
2023/10/15 22:52:37;;;;;;;8.00;5.73;;;;;;;7.79;47.81;100295.06;10400681;28;20225;-66
2023/10/15 22:57:41;;;;;;;15.67;7.83;;;;;;;8.13;47.48;100228.53;10419053;28;20751;-65
2023/10/15 23:02:43;;;;;;;10.10;6.97;;;;;;;7.51;48.77;100305.78;10420072;28;20297;-66
2023/10/15 23:07:45;;;;;;;3.43;3.10;;;;;;;7.88;48.59;100187.56;10418214;28;20289;-67
2023/10/15 23:12:47;;;;;;;3.50;3.20;;;;;;;7.50;48.92;100217.09;10418489;28;20926;-66
2023/10/15 23:17:49;;;;;;;7.73;3.50;;;;;;;7.92;47.74;100176.47;10424099;28;20251;-66
2023/10/15 23:22:54;;;;;;;5.37;3.90;;;;;;;8.28;46.43;100141.63;10420462;28;20220;-67
2023/10/15 23:28:10;;;;;;;6.73;3.70;;;;;;;7.90;46.96;100172.28;10434736;28;20765;-67